FIN612 EFHK-EFKT
Flight info
| Callsign | FIN612 |
|---|---|
| Flight time | 1h 8m |
| Altitude | 36000 |
| Route | TEVRU Y75 EVIMI |
| Aircraft | A321/M-SDE3FGHIRWY/LB1 |
Departure
| Time | 2026-05-05 15:02 |
|---|---|
| Airport | Helsinki Vantaa Airport (EFHK) |
Arrival
| Time | 2026-05-05 16:10 |
|---|---|
| Airport | Kittilä International Airport (EFKT) |
| Time | Latitude | Longitude | Altitude | Speed | Heading |
|---|---|---|---|---|---|
| 2026-05-05 14:43 | 60.31903 | 24.96965 | 167 ft | 0 kts | 242° |
| 2026-05-05 14:52 | 60.31908 | 24.96985 | 166 ft | 4 kts | 243° |
| 2026-05-05 14:52 | 60.31919 | 24.97035 | 166 ft | 4 kts | 252° |
| 2026-05-05 14:53 | 60.31922 | 24.97083 | 166 ft | 4 kts | 299° |
| 2026-05-05 14:53 | 60.31917 | 24.97098 | 166 ft | 0 kts | 333° |
| 2026-05-05 14:55 | 60.31930 | 24.97084 | 166 ft | 4 kts | 333° |
| 2026-05-05 14:55 | 60.31971 | 24.97042 | 166 ft | 9 kts | 333° |
| 2026-05-05 14:56 | 60.32036 | 24.96976 | 166 ft | 12 kts | 333° |
| 2026-05-05 14:56 | 60.32122 | 24.96879 | 166 ft | 16 kts | 330° |
| 2026-05-05 14:56 | 60.32225 | 24.96758 | 166 ft | 18 kts | 330° |
| 2026-05-05 14:56 | 60.32333 | 24.96631 | 170 ft | 17 kts | 330° |
| 2026-05-05 14:57 | 60.32424 | 24.96526 | 175 ft | 15 kts | 330° |
| 2026-05-05 14:57 | 60.32522 | 24.96412 | 174 ft | 17 kts | 330° |
| 2026-05-05 14:57 | 60.32632 | 24.96284 | 172 ft | 19 kts | 330° |
| 2026-05-05 14:57 | 60.32753 | 24.96142 | 172 ft | 20 kts | 330° |
| 2026-05-05 14:58 | 60.32876 | 24.95998 | 174 ft | 20 kts | 330° |
| 2026-05-05 14:58 | 60.32996 | 24.95858 | 179 ft | 19 kts | 330° |
| 2026-05-05 14:58 | 60.33104 | 24.95712 | 180 ft | 20 kts | 317° |
| 2026-05-05 14:58 | 60.33193 | 24.95536 | 182 ft | 14 kts | 307° |
| 2026-05-05 14:59 | 60.33187 | 24.95347 | 180 ft | 16 kts | 230° |
| 2026-05-05 14:59 | 60.33111 | 24.95148 | 178 ft | 19 kts | 249° |
| 2026-05-05 14:59 | 60.33111 | 24.94878 | 179 ft | 19 kts | 274° |
| 2026-05-05 14:59 | 60.33116 | 24.94624 | 185 ft | 17 kts | 271° |
| 2026-05-05 15:00 | 60.33113 | 24.94413 | 190 ft | 15 kts | 252° |
| 2026-05-05 15:00 | 60.33073 | 24.94299 | 197 ft | 16 kts | 228° |
| 2026-05-05 15:00 | 60.33043 | 24.94233 | 191 ft | 0 kts | 227° |
| 2026-05-05 15:01 | 60.33038 | 24.94220 | 192 ft | 11 kts | 227° |
| 2026-05-05 15:01 | 60.32815 | 24.93729 | 181 ft | 83 kts | 227° |
| 2026-05-05 15:01 | 60.32286 | 24.92563 | 171 ft | 140 kts | 227° |
| 2026-05-05 15:01 | 60.31555 | 24.90966 | 492 ft | 158 kts | 230° |
| 2026-05-05 15:02 | 60.30788 | 24.89287 | 1079 ft | 168 kts | 231° |
| 2026-05-05 15:02 | 60.30116 | 24.87347 | 1636 ft | 172 kts | 254° |
| 2026-05-05 15:02 | 60.30131 | 24.84862 | 1874 ft | 187 kts | 284° |
| 2026-05-05 15:02 | 60.30663 | 24.82300 | 2010 ft | 211 kts | 293° |
| 2026-05-05 15:03 | 60.30684 | 24.82209 | 2015 ft | 212 kts | 293° |
| 2026-05-05 15:04 | 60.31150 | 24.80186 | 2274 ft | 223 kts | 292° |
| 2026-05-05 15:04 | 60.31834 | 24.77222 | 2777 ft | 238 kts | 295° |
| 2026-05-05 15:04 | 60.32647 | 24.74279 | 3559 ft | 242 kts | 297° |
| 2026-05-05 15:04 | 60.33484 | 24.71296 | 4370 ft | 246 kts | 297° |
| 2026-05-05 15:05 | 60.35307 | 24.65366 | 5971 ft | 254 kts | 312° |
| 2026-05-05 15:05 | 60.36772 | 24.63307 | 6719 ft | 263 kts | 334° |
| 2026-05-05 15:05 | 60.38595 | 24.62581 | 7474 ft | 275 kts | 357° |
| 2026-05-05 15:06 | 60.40490 | 24.63196 | 8189 ft | 283 kts | 8° |
| 2026-05-05 15:06 | 60.42425 | 24.64109 | 8912 ft | 288 kts | 7° |
| 2026-05-05 15:06 | 60.44394 | 24.65031 | 9629 ft | 293 kts | 6° |
| 2026-05-05 15:06 | 60.46411 | 24.65962 | 10071 ft | 306 kts | 6° |
| 2026-05-05 15:07 | 60.48567 | 24.66957 | 10213 ft | 329 kts | 6° |
| 2026-05-05 15:07 | 60.50873 | 24.68016 | 10373 ft | 348 kts | 6° |
| 2026-05-05 15:07 | 60.53266 | 24.69111 | 10835 ft | 356 kts | 6° |
| 2026-05-05 15:07 | 60.55698 | 24.70230 | 11432 ft | 360 kts | 6° |
| 2026-05-05 15:08 | 60.58163 | 24.71360 | 11962 ft | 367 kts | 6° |
| 2026-05-05 15:08 | 60.60638 | 24.72509 | 12448 ft | 373 kts | 5° |
| 2026-05-05 15:08 | 60.63198 | 24.73693 | 12943 ft | 380 kts | 5° |
| 2026-05-05 15:08 | 60.65799 | 24.74893 | 13432 ft | 387 kts | 4° |
| 2026-05-05 15:09 | 60.68444 | 24.76110 | 13880 ft | 393 kts | 4° |
| 2026-05-05 15:09 | 60.71121 | 24.77345 | 14364 ft | 396 kts | 4° |
| 2026-05-05 15:09 | 60.73824 | 24.78590 | 14881 ft | 400 kts | 4° |
| 2026-05-05 15:09 | 60.76549 | 24.79852 | 15408 ft | 403 kts | 4° |
| 2026-05-05 15:10 | 60.79293 | 24.81143 | 15949 ft | 406 kts | 4° |
| 2026-05-05 15:10 | 60.82057 | 24.82400 | 16468 ft | 406 kts | 0° |
| 2026-05-05 15:10 | 60.84809 | 24.83156 | 17036 ft | 404 kts | 355° |
| 2026-05-05 15:10 | 60.87616 | 24.83788 | 17572 ft | 407 kts | 355° |
| 2026-05-05 15:11 | 60.90440 | 24.84438 | 18099 ft | 411 kts | 355° |
| 2026-05-05 15:11 | 60.93291 | 24.85101 | 18554 ft | 414 kts | 355° |
| 2026-05-05 15:11 | 60.96160 | 24.85785 | 19007 ft | 417 kts | 355° |
| 2026-05-05 15:11 | 60.99054 | 24.86472 | 19483 ft | 420 kts | 355° |
| 2026-05-05 15:12 | 61.01975 | 24.87165 | 19899 ft | 425 kts | 355° |
| 2026-05-05 15:12 | 61.04924 | 24.87870 | 20349 ft | 428 kts | 355° |
| 2026-05-05 15:12 | 61.07894 | 24.88567 | 20798 ft | 431 kts | 355° |
| 2026-05-05 15:12 | 61.10844 | 24.89280 | 21236 ft | 435 kts | 355° |
| 2026-05-05 15:13 | 61.13859 | 24.90009 | 21741 ft | 438 kts | 355° |
| 2026-05-05 15:13 | 61.16894 | 24.90743 | 22147 ft | 441 kts | 355° |
| 2026-05-05 15:13 | 61.19953 | 24.91477 | 22551 ft | 444 kts | 355° |
| 2026-05-05 15:13 | 61.23033 | 24.92215 | 22961 ft | 447 kts | 355° |
| 2026-05-05 15:14 | 61.26130 | 24.92957 | 23351 ft | 450 kts | 355° |
| 2026-05-05 15:14 | 61.29244 | 24.93711 | 23694 ft | 452 kts | 355° |
| 2026-05-05 15:14 | 61.32380 | 24.94468 | 24026 ft | 454 kts | 355° |
| 2026-05-05 15:14 | 61.35522 | 24.95231 | 24353 ft | 456 kts | 355° |
| 2026-05-05 15:15 | 61.38677 | 24.95994 | 24681 ft | 458 kts | 355° |
| 2026-05-05 15:15 | 61.41807 | 24.96755 | 25002 ft | 460 kts | 355° |
| 2026-05-05 15:15 | 61.44990 | 24.97541 | 25389 ft | 462 kts | 355° |
| 2026-05-05 15:15 | 61.48190 | 24.98335 | 25670 ft | 464 kts | 355° |
| 2026-05-05 15:16 | 61.51405 | 24.99115 | 25968 ft | 467 kts | 355° |
| 2026-05-05 15:16 | 61.54641 | 24.99911 | 26268 ft | 469 kts | 355° |
| 2026-05-05 15:16 | 61.57886 | 25.00727 | 26561 ft | 471 kts | 355° |
| 2026-05-05 15:16 | 61.61143 | 25.01468 | 26865 ft | 468 kts | 352° |
| 2026-05-05 15:17 | 61.64386 | 25.01717 | 27142 ft | 465 kts | 349° |
| 2026-05-05 15:17 | 61.67581 | 25.01821 | 27419 ft | 467 kts | 349° |
| 2026-05-05 15:17 | 61.70834 | 25.01924 | 27700 ft | 468 kts | 349° |
| 2026-05-05 15:17 | 61.74101 | 25.02029 | 27955 ft | 470 kts | 349° |
| 2026-05-05 15:18 | 61.77379 | 25.02138 | 28250 ft | 472 kts | 349° |
| 2026-05-05 15:18 | 61.80675 | 25.02272 | 28461 ft | 475 kts | 349° |
| 2026-05-05 15:18 | 61.83982 | 25.02413 | 28792 ft | 476 kts | 349° |
| 2026-05-05 15:18 | 61.87301 | 25.02539 | 29019 ft | 478 kts | 349° |
| 2026-05-05 15:19 | 61.90631 | 25.02651 | 29267 ft | 480 kts | 349° |
| 2026-05-05 15:19 | 61.93974 | 25.02781 | 29501 ft | 482 kts | 350° |
| 2026-05-05 15:19 | 61.97329 | 25.02919 | 29722 ft | 483 kts | 349° |
| 2026-05-05 15:19 | 62.00649 | 25.03033 | 29903 ft | 484 kts | 350° |
| 2026-05-05 15:20 | 62.04021 | 25.03169 | 30086 ft | 486 kts | 350° |
| 2026-05-05 15:20 | 62.07404 | 25.03299 | 30272 ft | 487 kts | 350° |
| 2026-05-05 15:20 | 62.10789 | 25.03434 | 30567 ft | 486 kts | 350° |
| 2026-05-05 15:20 | 62.14167 | 25.03579 | 30805 ft | 485 kts | 350° |
| 2026-05-05 15:21 | 62.17543 | 25.03703 | 31044 ft | 485 kts | 350° |
| 2026-05-05 15:21 | 62.20916 | 25.03817 | 31262 ft | 484 kts | 351° |
| 2026-05-05 15:21 | 62.24285 | 25.03944 | 31477 ft | 484 kts | 351° |
| 2026-05-05 15:21 | 62.27609 | 25.04079 | 31707 ft | 484 kts | 351° |
| 2026-05-05 15:22 | 62.30973 | 25.04205 | 31939 ft | 483 kts | 351° |
| 2026-05-05 15:22 | 62.34338 | 25.04323 | 32159 ft | 483 kts | 351° |
| 2026-05-05 15:22 | 62.37697 | 25.04450 | 32365 ft | 483 kts | 352° |
| 2026-05-05 15:22 | 62.41057 | 25.04584 | 32591 ft | 483 kts | 352° |
| 2026-05-05 15:23 | 62.44413 | 25.04724 | 32805 ft | 482 kts | 352° |
| 2026-05-05 15:23 | 62.47771 | 25.04870 | 33016 ft | 482 kts | 352° |
| 2026-05-05 15:23 | 62.51122 | 25.04997 | 33221 ft | 482 kts | 352° |
| 2026-05-05 15:23 | 62.54473 | 25.05123 | 33428 ft | 481 kts | 352° |
| 2026-05-05 15:24 | 62.57780 | 25.05262 | 33651 ft | 482 kts | 353° |
| 2026-05-05 15:24 | 62.61138 | 25.05392 | 33766 ft | 484 kts | 353° |
| 2026-05-05 15:24 | 62.64508 | 25.05525 | 33877 ft | 485 kts | 354° |
| 2026-05-05 15:24 | 62.67882 | 25.05667 | 34024 ft | 485 kts | 354° |
| 2026-05-05 15:25 | 62.71255 | 25.05786 | 34170 ft | 485 kts | 354° |
| 2026-05-05 15:25 | 62.74625 | 25.05897 | 34338 ft | 485 kts | 354° |
| 2026-05-05 15:25 | 62.78002 | 25.06019 | 34472 ft | 485 kts | 354° |
| 2026-05-05 15:25 | 62.81373 | 25.06152 | 34605 ft | 485 kts | 354° |
| 2026-05-05 15:26 | 62.84749 | 25.06296 | 34747 ft | 485 kts | 354° |
| 2026-05-05 15:26 | 62.88076 | 25.06425 | 34876 ft | 485 kts | 354° |
| 2026-05-05 15:26 | 62.91446 | 25.06559 | 35027 ft | 484 kts | 354° |
| 2026-05-05 15:26 | 62.94815 | 25.06703 | 35170 ft | 484 kts | 354° |
| 2026-05-05 15:27 | 62.98185 | 25.06842 | 35310 ft | 484 kts | 355° |
| 2026-05-05 15:27 | 63.01548 | 25.06983 | 35445 ft | 484 kts | 355° |
| 2026-05-05 15:27 | 63.04912 | 25.07111 | 35573 ft | 484 kts | 355° |
| 2026-05-05 15:28 | 63.11630 | 25.07399 | 35655 ft | 482 kts | 355° |
| 2026-05-05 15:28 | 63.18290 | 25.07650 | 35653 ft | 481 kts | 355° |
| 2026-05-05 15:29 | 63.24987 | 25.07951 | 35649 ft | 481 kts | 355° |
| 2026-05-05 15:29 | 63.31679 | 25.08199 | 35643 ft | 480 kts | 355° |
| 2026-05-05 15:30 | 63.38353 | 25.08498 | 35648 ft | 480 kts | 355° |
| 2026-05-05 15:30 | 63.45030 | 25.08760 | 35670 ft | 480 kts | 355° |
| 2026-05-05 15:31 | 63.51664 | 25.09028 | 35661 ft | 480 kts | 355° |
| 2026-05-05 15:31 | 63.58345 | 25.09296 | 35653 ft | 480 kts | 355° |
| 2026-05-05 15:32 | 63.65023 | 25.09583 | 35657 ft | 480 kts | 355° |
| 2026-05-05 15:32 | 63.71702 | 25.09846 | 35645 ft | 480 kts | 355° |
| 2026-05-05 15:33 | 63.78338 | 25.10125 | 35663 ft | 480 kts | 355° |
| 2026-05-05 15:33 | 63.85018 | 25.10410 | 35646 ft | 480 kts | 355° |
| 2026-05-05 15:34 | 63.91695 | 25.10684 | 35642 ft | 480 kts | 355° |
| 2026-05-05 15:34 | 63.98364 | 25.10970 | 35632 ft | 479 kts | 355° |
| 2026-05-05 15:35 | 64.05035 | 25.11263 | 35655 ft | 479 kts | 356° |
| 2026-05-05 15:35 | 64.11654 | 25.11537 | 35598 ft | 477 kts | 356° |
| 2026-05-05 15:36 | 64.18274 | 25.11812 | 35603 ft | 476 kts | 356° |
| 2026-05-05 15:36 | 64.24893 | 25.12085 | 35598 ft | 476 kts | 356° |
| 2026-05-05 15:37 | 64.31480 | 25.12374 | 35609 ft | 477 kts | 356° |
| 2026-05-05 15:37 | 64.38110 | 25.12657 | 35599 ft | 477 kts | 356° |
| 2026-05-05 15:38 | 64.44744 | 25.12937 | 35624 ft | 477 kts | 355° |
| 2026-05-05 15:38 | 64.51373 | 25.12892 | 35609 ft | 476 kts | 355° |
| 2026-05-05 15:39 | 64.58006 | 25.12893 | 35607 ft | 477 kts | 355° |
| 2026-05-05 15:39 | 64.64589 | 25.12904 | 35593 ft | 476 kts | 355° |
| 2026-05-05 15:40 | 64.71220 | 25.12915 | 35599 ft | 476 kts | 355° |
| 2026-05-05 15:40 | 64.77846 | 25.12898 | 35614 ft | 476 kts | 355° |
| 2026-05-05 15:41 | 64.84453 | 25.12905 | 35576 ft | 473 kts | 356° |
| 2026-05-05 15:41 | 64.91031 | 25.12902 | 35561 ft | 473 kts | 355° |
| 2026-05-05 15:42 | 64.97567 | 25.12903 | 35566 ft | 473 kts | 355° |
| 2026-05-05 15:42 | 65.04157 | 25.12896 | 35569 ft | 474 kts | 355° |
| 2026-05-05 15:43 | 65.10752 | 25.12934 | 35562 ft | 474 kts | 355° |
| 2026-05-05 15:43 | 65.17347 | 25.12905 | 35581 ft | 474 kts | 356° |
| 2026-05-05 15:44 | 65.23898 | 25.12881 | 35568 ft | 474 kts | 356° |
| 2026-05-05 15:44 | 65.30494 | 25.12856 | 35553 ft | 474 kts | 356° |
| 2026-05-05 15:45 | 65.37085 | 25.12821 | 35548 ft | 474 kts | 355° |
| 2026-05-05 15:45 | 65.43675 | 25.12798 | 35548 ft | 474 kts | 356° |
| 2026-05-05 15:46 | 65.50221 | 25.12759 | 35546 ft | 473 kts | 356° |
| 2026-05-05 15:46 | 65.56809 | 25.12708 | 35544 ft | 473 kts | 356° |
| 2026-05-05 15:47 | 65.63389 | 25.12685 | 35542 ft | 473 kts | 356° |
| 2026-05-05 15:47 | 65.69974 | 25.12639 | 35543 ft | 473 kts | 356° |
| 2026-05-05 15:48 | 65.76564 | 25.12600 | 35539 ft | 473 kts | 356° |
| 2026-05-05 15:48 | 65.83107 | 25.12560 | 35337 ft | 475 kts | 356° |
| 2026-05-05 15:48 | 65.86418 | 25.12547 | 34606 ft | 477 kts | 356° |
| 2026-05-05 15:49 | 65.89730 | 25.12536 | 34083 ft | 473 kts | 356° |
| 2026-05-05 15:49 | 65.93009 | 25.12519 | 33562 ft | 470 kts | 356° |
| 2026-05-05 15:49 | 65.96268 | 25.12493 | 32953 ft | 467 kts | 356° |
| 2026-05-05 15:49 | 65.99497 | 25.12480 | 32446 ft | 461 kts | 356° |
| 2026-05-05 15:50 | 66.02685 | 25.12456 | 31911 ft | 456 kts | 356° |
| 2026-05-05 15:50 | 66.05839 | 25.12438 | 31389 ft | 451 kts | 356° |
| 2026-05-05 15:50 | 66.08921 | 25.12417 | 30875 ft | 447 kts | 356° |
| 2026-05-05 15:50 | 66.12011 | 25.12293 | 30351 ft | 441 kts | 352° |
| 2026-05-05 15:51 | 66.15051 | 25.11747 | 29848 ft | 436 kts | 352° |
| 2026-05-05 15:51 | 66.18069 | 25.11178 | 29264 ft | 433 kts | 352° |
| 2026-05-05 15:51 | 66.21050 | 25.10650 | 28736 ft | 427 kts | 353° |
| 2026-05-05 15:51 | 66.23990 | 25.10138 | 28230 ft | 420 kts | 353° |
| 2026-05-05 15:52 | 66.26884 | 25.09635 | 27722 ft | 414 kts | 354° |
| 2026-05-05 15:52 | 66.29740 | 25.09134 | 27207 ft | 409 kts | 354° |
| 2026-05-05 15:52 | 66.32559 | 25.08652 | 26705 ft | 404 kts | 354° |
| 2026-05-05 15:52 | 66.35305 | 25.08166 | 26204 ft | 399 kts | 354° |
| 2026-05-05 15:53 | 66.38066 | 25.07684 | 25692 ft | 395 kts | 354° |
| 2026-05-05 15:53 | 66.40797 | 25.07208 | 25218 ft | 391 kts | 355° |
| 2026-05-05 15:53 | 66.43493 | 25.06718 | 24760 ft | 387 kts | 355° |
| 2026-05-05 15:53 | 66.46165 | 25.06225 | 24288 ft | 383 kts | 356° |
| 2026-05-05 15:54 | 66.48812 | 25.05763 | 23838 ft | 380 kts | 357° |
| 2026-05-05 15:54 | 66.51437 | 25.05296 | 23386 ft | 377 kts | 357° |
| 2026-05-05 15:54 | 66.54039 | 25.04831 | 22875 ft | 374 kts | 357° |
| 2026-05-05 15:54 | 66.56622 | 25.04368 | 22405 ft | 369 kts | 356° |
| 2026-05-05 15:55 | 66.59128 | 25.03919 | 21960 ft | 364 kts | 356° |
| 2026-05-05 15:55 | 66.61633 | 25.03472 | 21513 ft | 358 kts | 356° |
| 2026-05-05 15:55 | 66.64103 | 25.03030 | 21066 ft | 353 kts | 356° |
| 2026-05-05 15:55 | 66.66532 | 25.02588 | 20640 ft | 347 kts | 356° |
| 2026-05-05 15:56 | 66.68922 | 25.02161 | 20189 ft | 342 kts | 356° |
| 2026-05-05 15:56 | 66.71281 | 25.01736 | 19754 ft | 337 kts | 356° |
| 2026-05-05 15:56 | 66.73603 | 25.01312 | 19330 ft | 332 kts | 356° |
| 2026-05-05 15:56 | 66.75893 | 25.00879 | 18906 ft | 328 kts | 356° |
| 2026-05-05 15:57 | 66.78158 | 25.00465 | 18486 ft | 324 kts | 356° |
| 2026-05-05 15:57 | 66.80368 | 25.00067 | 18076 ft | 321 kts | 356° |
| 2026-05-05 15:57 | 66.82586 | 24.99668 | 17645 ft | 318 kts | 356° |
| 2026-05-05 15:57 | 66.84788 | 24.99267 | 17204 ft | 315 kts | 356° |
| 2026-05-05 15:58 | 66.86953 | 24.98864 | 16784 ft | 310 kts | 356° |
| 2026-05-05 15:58 | 66.89094 | 24.98463 | 16383 ft | 307 kts | 356° |
| 2026-05-05 15:58 | 66.91210 | 24.98072 | 15976 ft | 303 kts | 356° |
| 2026-05-05 15:58 | 66.93305 | 24.97694 | 15567 ft | 300 kts | 356° |
| 2026-05-05 15:59 | 66.95380 | 24.97310 | 15153 ft | 298 kts | 356° |
| 2026-05-05 15:59 | 66.97440 | 24.96921 | 14748 ft | 296 kts | 356° |
| 2026-05-05 15:59 | 66.99484 | 24.96537 | 14342 ft | 294 kts | 356° |
| 2026-05-05 15:59 | 67.01488 | 24.96159 | 13949 ft | 292 kts | 356° |
| 2026-05-05 16:00 | 67.03514 | 24.95783 | 13551 ft | 291 kts | 357° |
| 2026-05-05 16:00 | 67.05529 | 24.95422 | 13145 ft | 289 kts | 357° |
| 2026-05-05 16:00 | 67.07526 | 24.95057 | 12732 ft | 287 kts | 356° |
| 2026-05-05 16:00 | 67.09506 | 24.94678 | 12344 ft | 284 kts | 356° |
| 2026-05-05 16:01 | 67.11465 | 24.94299 | 11957 ft | 281 kts | 356° |
| 2026-05-05 16:01 | 67.13410 | 24.93935 | 11574 ft | 279 kts | 356° |
| 2026-05-05 16:01 | 67.15339 | 24.93573 | 11179 ft | 277 kts | 356° |
| 2026-05-05 16:01 | 67.17257 | 24.93215 | 10799 ft | 275 kts | 356° |
| 2026-05-05 16:02 | 67.19135 | 24.92859 | 10438 ft | 274 kts | 356° |
| 2026-05-05 16:02 | 67.21030 | 24.92502 | 10063 ft | 272 kts | 356° |
| 2026-05-05 16:02 | 67.22916 | 24.92139 | 9689 ft | 271 kts | 356° |
| 2026-05-05 16:02 | 67.24775 | 24.91794 | 9495 ft | 263 kts | 358° |
| 2026-05-05 16:03 | 67.26590 | 24.91935 | 9120 ft | 265 kts | 5° |
| 2026-05-05 16:03 | 67.28438 | 24.92308 | 8623 ft | 267 kts | 5° |
| 2026-05-05 16:03 | 67.30293 | 24.92675 | 8167 ft | 267 kts | 5° |
| 2026-05-05 16:03 | 67.32146 | 24.93046 | 7714 ft | 267 kts | 5° |
| 2026-05-05 16:04 | 67.33992 | 24.93397 | 7326 ft | 265 kts | 5° |
| 2026-05-05 16:04 | 67.35821 | 24.93750 | 6972 ft | 262 kts | 5° |
| 2026-05-05 16:04 | 67.37609 | 24.94082 | 6570 ft | 261 kts | 5° |
| 2026-05-05 16:04 | 67.39412 | 24.94422 | 6189 ft | 260 kts | 5° |
| 2026-05-05 16:05 | 67.41213 | 24.94778 | 5774 ft | 259 kts | 5° |
| 2026-05-05 16:05 | 67.43001 | 24.95134 | 5380 ft | 257 kts | 5° |
| 2026-05-05 16:05 | 67.44777 | 24.95477 | 5021 ft | 254 kts | 6° |
| 2026-05-05 16:05 | 67.46534 | 24.95819 | 4626 ft | 253 kts | 6° |
| 2026-05-05 16:06 | 67.48289 | 24.96156 | 4256 ft | 252 kts | 6° |
| 2026-05-05 16:06 | 67.49445 | 24.96384 | 3977 ft | 252 kts | 6° |
| 2026-05-05 16:06 | 67.51171 | 24.96620 | 3782 ft | 244 kts | 360° |
| 2026-05-05 16:06 | 67.53378 | 24.95707 | 3363 ft | 242 kts | 348° |
| 2026-05-05 16:07 | 67.54943 | 24.94551 | 3463 ft | 220 kts | 347° |
| 2026-05-05 16:07 | 67.56417 | 24.93516 | 3649 ft | 223 kts | 349° |
| 2026-05-05 16:07 | 67.57921 | 24.92548 | 3332 ft | 222 kts | 349° |
| 2026-05-05 16:07 | 67.59381 | 24.91620 | 2987 ft | 208 kts | 349° |
| 2026-05-05 16:08 | 67.60700 | 24.90765 | 2704 ft | 184 kts | 350° |
| 2026-05-05 16:08 | 67.61492 | 24.90252 | 2518 ft | 170 kts | 349° |
| 2026-05-05 16:08 | 67.62573 | 24.89551 | 2231 ft | 150 kts | 351° |
| 2026-05-05 16:08 | 67.63846 | 24.88731 | 1914 ft | 137 kts | 352° |
| 2026-05-05 16:09 | 67.64766 | 24.88142 | 1695 ft | 136 kts | 351° |
| 2026-05-05 16:09 | 67.65682 | 24.87552 | 1472 ft | 135 kts | 351° |
| 2026-05-05 16:09 | 67.66593 | 24.86965 | 1252 ft | 136 kts | 350° |
| 2026-05-05 16:09 | 67.67206 | 24.86569 | 1106 ft | 137 kts | 350° |
| 2026-05-05 16:10 | 67.68135 | 24.85960 | 897 ft | 140 kts | 350° |
| 2026-05-05 16:10 | 67.69080 | 24.85347 | 679 ft | 139 kts | 351° |
| 2026-05-05 16:10 | 67.69953 | 24.84791 | 642 ft | 114 kts | 346° |
| 2026-05-05 16:10 | 67.70441 | 24.84462 | 641 ft | 35 kts | 346° |
| 2026-05-05 16:11 | 67.70660 | 24.84343 | 640 ft | 16 kts | 8° |
| 2026-05-05 16:11 | 67.70619 | 24.84796 | 642 ft | 15 kts | 166° |
| 2026-05-05 16:12 | 67.70510 | 24.84868 | 644 ft | 17 kts | 166° |
| 2026-05-05 16:12 | 67.70251 | 24.85036 | 639 ft | 21 kts | 166° |
| 2026-05-05 16:13 | 67.69828 | 24.85314 | 644 ft | 15 kts | 161° |
| 2026-05-05 16:13 | 67.69721 | 24.85394 | 641 ft | 17 kts | 166° |
| 2026-05-05 16:13 | 67.69632 | 24.85456 | 642 ft | 8 kts | 156° |
| 2026-05-05 16:14 | 67.69634 | 24.85639 | 639 ft | 3 kts | 76° |
| 2026-05-05 16:14 | 67.69634 | 24.85641 | 639 ft | 0 kts | 76° |